Time;durP1;ratioP1;P1;durP2;ratioP2;P2;SDS_P1;SDS_P2;PMS_P1;PMS_P2;Temp;Humidity;BMP_temperature;BMP_pressure;BME280_temperature;BME280_humidity;BME280_pressure;Samples;Min_cycle;Max_cycle;Signal;HPM_P1;HPM_P2
2023/02/23 00:00:13;;;;;;;;;;;6.60;99.90;;;;;;4939865;29;20069;-79
2023/02/23 00:02:40;;;;;;;12.70;10.23;;;6.60;99.90;;;;;;4940458;29;19929;-79
2023/02/23 00:05:07;;;;;;;18.40;10.73;;;6.60;99.90;;;;;;4939325;29;20052;-79
2023/02/23 00:07:35;;;;;;;15.82;10.07;;;6.50;99.90;;;;;;4941115;29;20058;-79
2023/02/23 00:10:02;;;;;;;14.95;11.18;;;6.40;99.90;;;;;;4939605;29;20426;-78
2023/02/23 00:12:28;;;;;;;14.43;10.02;;;6.40;99.90;;;;;;4938426;29;20111;-79
2023/02/23 00:14:55;;;;;;;14.70;11.20;;;6.40;99.90;;;;;;4939129;29;20467;-79
2023/02/23 00:17:24;;;;;;;14.65;11.27;;;6.40;99.90;;;;;;4939236;29;20482;-79
2023/02/23 00:19:51;;;;;;;14.07;10.27;;;6.40;99.90;;;;;;4939884;29;20050;-80
2023/02/23 00:22:17;;;;;;;14.30;10.80;;;6.40;99.90;;;;;;4939039;29;20066;-79
2023/02/23 00:24:46;;;;;;;18.48;13.48;;;6.40;99.90;;;;;;4939163;29;20044;-78
2023/02/23 00:27:17;;;;;;;20.17;13.55;;;6.50;99.90;;;;;;4939189;29;20450;-79
2023/02/23 00:29:48;;;;;;;15.80;12.43;;;6.50;99.90;;;;;;4939496;29;20055;-79
2023/02/23 00:32:20;;;;;;;21.50;12.82;;;6.60;99.90;;;;;;4938253;29;20142;-79
2023/02/23 00:34:51;;;;;;;16.92;12.82;;;6.60;99.90;;;;;;4939618;29;20098;-79
2023/02/23 00:37:17;;;;;;;20.95;15.38;;;6.60;99.90;;;;;;4938020;29;20048;-79
2023/02/23 00:39:47;;;;;;;22.80;15.40;;;6.60;99.90;;;;;;4939680;29;20492;-79
2023/02/23 00:42:14;;;;;;;17.85;13.73;;;6.60;99.90;;;;;;4939649;29;20071;-80
2023/02/23 00:44:42;;;;;;;18.88;14.27;;;6.60;99.90;;;;;;4937630;29;20050;-79
2023/02/23 00:47:09;;;;;;;17.70;13.15;;;6.60;99.90;;;;;;4939816;29;20048;-79
2023/02/23 00:49:36;;;;;;;18.55;14.25;;;6.60;99.90;;;;;;4939775;29;20479;-79
2023/02/23 00:52:03;;;;;;;21.05;14.23;;;6.60;99.90;;;;;;4937923;29;20070;-79
2023/02/23 00:54:30;;;;;;;18.77;14.65;;;6.60;99.90;;;;;;4939083;29;20175;-79
2023/02/23 00:56:57;;;;;;;16.63;11.82;;;6.50;99.90;;;;;;4955075;29;20059;-80
2023/02/23 00:59:23;;;;;;;18.50;14.55;;;6.60;99.90;;;;;;4953078;28;20355;-80
2023/02/23 01:01:51;;;;;;;16.38;12.80;;;6.50;99.90;;;;;;4953646;29;20138;-80
2023/02/23 01:04:19;;;;;;;17.35;12.90;;;6.50;99.90;;;;;;4953014;29;20047;-79
2023/02/23 01:06:46;;;;;;;18.35;14.13;;;6.50;99.90;;;;;;4939640;29;20036;-79
2023/02/23 01:09:13;;;;;;;20.05;14.02;;;6.50;99.90;;;;;;4939359;29;20119;-79
2023/02/23 01:11:45;;;;;;;20.00;14.55;;;6.50;99.90;;;;;;4953486;28;20067;-79
2023/02/23 01:14:13;;;;;;;18.85;13.63;;;6.40;99.90;;;;;;4937974;29;20411;-79
2023/02/23 01:16:40;;;;;;;18.80;13.80;;;6.40;99.90;;;;;;4954174;29;20540;-80
2023/02/23 01:19:06;;;;;;;16.45;12.68;;;6.40;99.90;;;;;;4937445;29;20047;-79
2023/02/23 01:21:33;;;;;;;17.45;12.90;;;6.40;99.90;;;;;;4954033;29;20403;-78
2023/02/23 01:24:01;;;;;;;17.50;13.38;;;6.40;99.90;;;;;;4952958;29;20054;-79
2023/02/23 01:26:27;;;;;;;17.45;12.30;;;6.40;99.90;;;;;;4938748;29;20119;-79
2023/02/23 01:28:54;;;;;;;15.20;12.45;;;6.40;99.90;;;;;;4953584;28;20486;-79
2023/02/23 01:31:23;;;;;;;16.15;12.25;;;6.30;99.90;;;;;;4936987;29;20577;-79
2023/02/23 01:33:49;;;;;;;15.00;11.57;;;6.30;99.90;;;;;;4938484;29;20497;-78
2023/02/23 01:36:17;;;;;;;17.63;14.13;;;6.40;99.90;;;;;;4953642;28;20054;-80
2023/02/23 01:38:44;;;;;;;16.25;12.38;;;6.30;99.90;;;;;;4937984;29;20047;-79
2023/02/23 01:41:10;;;;;;;16.75;10.75;;;6.30;99.90;;;;;;4938037;29;20039;-79
2023/02/23 01:43:37;;;;;;;21.42;10.90;;;6.30;99.90;;;;;;4937378;29;20048;-79
2023/02/23 01:46:04;;;;;;;17.75;11.50;;;6.30;99.90;;;;;;4937783;29;20039;-78
2023/02/23 01:48:33;;;;;;;16.35;10.65;;;6.30;99.90;;;;;;4938601;29;20043;-79
2023/02/23 01:50:59;;;;;;;11.88;9.43;;;6.30;99.90;;;;;;4936750;29;20043;-78
2023/02/23 01:53:26;;;;;;;13.23;10.20;;;6.30;99.90;;;;;;4937483;29;20052;-79
2023/02/23 01:55:54;;;;;;;11.63;8.48;;;6.30;99.90;;;;;;4938432;29;20533;-79
2023/02/23 01:58:21;;;;;;;12.63;9.50;;;6.30;99.90;;;;;;4936483;29;20139;-79
2023/02/23 02:00:47;;;;;;;11.43;8.77;;;6.30;99.90;;;;;;4921791;29;20074;-78
2023/02/23 02:03:14;;;;;;;11.10;8.77;;;6.30;99.90;;;;;;4937030;29;20377;-79
2023/02/23 02:05:42;;;;;;;12.63;8.65;;;6.30;99.90;;;;;;4937047;29;20383;-78
2023/02/23 02:08:09;;;;;;;13.32;9.38;;;6.30;99.90;;;;;;4938110;29;20360;-79
2023/02/23 02:10:38;;;;;;;10.18;7.85;;;6.40;99.90;;;;;;4936915;29;20075;-79
2023/02/23 02:13:05;;;;;;;;;;;6.50;99.90;;;;;;4937408;29;20095;-78
2023/02/23 02:15:32;;;;;;;10.25;8.10;;;6.40;99.90;;;;;;4938046;29;20273;-78
2023/02/23 02:17:59;;;;;;;8.30;6.80;;;6.50;99.90;;;;;;4920771;29;20055;-80
2023/02/23 02:20:31;;;;;;;9.98;7.55;;;6.50;99.90;;;;;;4937659;29;20032;-78
2023/02/23 02:22:58;;;;;;;9.57;7.15;;;6.50;99.90;;;;;;4937102;29;20052;-79
2023/02/23 02:25:26;;;;;;;9.13;7.28;;;6.50;99.90;;;;;;4951962;29;20039;-79
2023/02/23 02:27:52;;;;;;;7.72;6.57;;;6.50;99.90;;;;;;4937910;29;20075;-79
2023/02/23 02:30:19;;;;;;;8.60;6.25;;;6.50;99.90;;;;;;4937078;29;20051;-78
2023/02/23 02:32:46;;;;;;;9.02;7.13;;;6.50;99.90;;;;;;4935944;29;20051;-78
2023/02/23 02:35:13;;;;;;;8.32;5.75;;;6.50;99.90;;;;;;4937932;29;20044;-78
2023/02/23 02:37:39;;;;;;;8.50;5.82;;;6.50;99.90;;;;;;4936217;29;20092;-78
2023/02/23 02:40:15;;;;;;;10.23;5.88;;;6.50;99.90;;;;;;4937760;29;20043;-78
2023/02/23 02:42:42;;;;;;;7.63;5.30;;;6.50;99.90;;;;;;4953073;29;20451;-80
2023/02/23 02:45:09;;;;;;;9.68;6.45;;;6.50;99.90;;;;;;4935413;29;20054;-79
2023/02/23 02:47:36;;;;;;;7.43;5.57;;;6.60;99.90;;;;;;4936258;29;20052;-78
2023/02/23 02:50:03;;;;;;;6.15;4.82;;;6.50;99.90;;;;;;4937391;29;20044;-80
2023/02/23 02:52:29;;;;;;;7.28;5.40;;;6.50;99.90;;;;;;4936567;29;20127;-78
2023/02/23 02:54:56;;;;;;;7.35;5.35;;;6.50;99.90;;;;;;4936445;29;20047;-79
2023/02/23 02:57:23;;;;;;;7.43;5.70;;;6.50;99.90;;;;;;4936489;29;20044;-79
2023/02/23 04:19:16;;;;;;;7.75;6.20;;;6.50;99.90;;;;;;4939315;29;20051;-79
2023/02/23 04:21:42;;;;;;;8.43;5.57;;;6.60;99.90;;;;;;4939798;29;20047;-79
2023/02/23 04:24:09;;;;;;;9.55;6.18;;;6.60;99.90;;;;;;4938982;29;20044;-79
2023/02/23 04:26:37;;;;;;;8.77;5.85;;;6.50;99.90;;;;;;4940115;29;20052;-79
2023/02/23 04:29:03;;;;;;;7.88;5.95;;;6.50;99.90;;;;;;4939926;29;20375;-80
2023/02/23 04:31:30;;;;;;;8.00;5.60;;;6.50;99.90;;;;;;4939119;29;20378;-79
2023/02/23 04:33:57;;;;;;;8.93;5.93;;;6.60;99.90;;;;;;4939421;29;20043;-79
2023/02/23 04:36:25;;;;;;;8.32;6.60;;;6.50;99.90;;;;;;4939670;29;20044;-79
2023/02/23 04:38:52;;;;;;;9.00;5.93;;;6.50;99.90;;;;;;4939038;29;20428;-79
2023/02/23 04:41:18;;;;;;;8.63;5.70;;;6.50;99.90;;;;;;4935103;29;20044;-79
2023/02/23 04:43:45;;;;;;;7.20;5.18;;;6.50;99.90;;;;;;4920557;29;20040;-80
2023/02/23 04:46:12;;;;;;;10.50;6.00;;;6.50;99.90;;;;;;4919244;29;20104;-79
2023/02/23 04:48:39;;;;;;;6.97;5.25;;;6.50;99.90;;;;;;4935156;29;20368;-80
2023/02/23 04:51:05;;;;;;;7.18;5.22;;;6.50;99.90;;;;;;4919984;29;20089;-79
2023/02/23 04:53:32;;;;;;;13.57;5.68;;;6.60;99.90;;;;;;4920440;29;20059;-79
2023/02/23 04:55:59;;;;;;;7.95;5.43;;;6.60;99.90;;;;;;4935736;29;20060;-78
2023/02/23 04:58:27;;;;;;;6.72;5.25;;;6.60;99.90;;;;;;4934370;29;20135;-79
2023/02/23 05:00:53;;;;;;;8.48;5.00;;;6.60;99.90;;;;;;4935726;29;20036;-79
2023/02/23 05:03:20;;;;;;;8.82;5.30;;;6.50;99.90;;;;;;4934762;29;20111;-78
2023/02/23 05:05:48;;;;;;;10.98;6.43;;;6.50;99.90;;;;;;4934341;29;20455;-78
2023/02/23 05:08:14;;;;;;;7.75;4.97;;;6.50;99.90;;;;;;4920852;29;20057;-79
2023/02/23 05:10:41;;;;;;;10.10;5.22;;;6.50;99.90;;;;;;4919527;29;20044;-79
2023/02/23 05:13:08;;;;;;;8.57;5.85;;;6.50;99.90;;;;;;4935137;29;20075;-78
2023/02/23 05:15:35;;;;;;;7.90;5.32;;;6.50;99.90;;;;;;4920033;29;20044;-79
2023/02/23 05:18:02;;;;;;;6.00;4.47;;;6.50;99.90;;;;;;4919470;29;20115;-79
2023/02/23 05:20:29;;;;;;;6.90;4.28;;;6.50;99.90;;;;;;4919991;29;20367;-79
2023/02/23 05:22:56;;;;;;;5.85;5.15;;;6.50;99.90;;;;;;4919580;29;20036;-80
2023/02/23 05:25:24;;;;;;;8.27;4.63;;;6.60;99.90;;;;;;4919400;29;20052;-80
2023/02/23 05:27:50;;;;;;;5.75;4.55;;;6.60;99.90;;;;;;4934925;29;20066;-79
2023/02/23 05:30:17;;;;;;;6.93;4.82;;;6.60;99.90;;;;;;4920228;29;20040;-79
2023/02/23 05:32:43;;;;;;;7.50;4.20;;;6.60;99.90;;;;;;4933605;29;20074;-79
2023/02/23 05:35:11;;;;;;;6.32;3.85;;;6.60;99.90;;;;;;4919718;29;20040;-79
2023/02/23 05:37:38;;;;;;;8.93;5.75;;;6.50;99.90;;;;;;4933598;29;20040;-80
2023/02/23 05:40:05;;;;;;;6.22;4.07;;;6.50;99.90;;;;;;4919127;29;20375;-80
2023/02/23 05:42:32;;;;;;;6.43;4.15;;;6.50;99.90;;;;;;4948084;29;20047;-79
2023/02/23 05:44:58;;;;;;;7.82;3.67;;;6.50;99.90;;;;;;4937203;29;20107;-78
2023/02/23 05:47:25;;;;;;;5.53;3.45;;;6.50;99.90;;;;;;4938420;29;20059;-79
2023/02/23 05:49:52;;;;;;;6.40;3.75;;;6.50;99.90;;;;;;4953449;29;20051;-79
2023/02/23 05:52:18;;;;;;;4.93;3.35;;;6.50;99.90;;;;;;4937864;29;20138;-79
2023/02/23 05:54:45;;;;;;;11.90;4.30;;;6.50;99.90;;;;;;4938616;29;20060;-79
2023/02/23 05:57:12;;;;;;;3.58;2.90;;;6.60;99.90;;;;;;4937216;29;20127;-79
2023/02/23 05:59:39;;;;;;;5.57;3.85;;;6.60;99.90;;;;;;4938097;29;20062;-80
2023/02/23 06:02:05;;;;;;;4.32;3.10;;;6.50;99.90;;;;;;4938022;29;20478;-79
2023/02/23 06:04:32;;;;;;;3.42;2.40;;;6.60;99.90;;;;;;4936505;29;20050;-79
2023/02/23 06:07:01;;;;;;;4.07;3.50;;;6.60;99.90;;;;;;4952783;29;20376;-80
2023/02/23 06:09:27;;;;;;;4.57;2.95;;;6.60;99.90;;;;;;4938103;29;20048;-80
2023/02/23 06:11:54;;;;;;;7.50;3.33;;;6.60;99.90;;;;;;4951711;29;20055;-80
2023/02/23 06:14:21;;;;;;;5.72;3.17;;;6.60;99.90;;;;;;4937620;29;20094;-78
2023/02/23 06:16:47;;;;;;;3.95;2.75;;;6.60;99.90;;;;;;4937026;29;20059;-79
2023/02/23 06:19:14;;;;;;;3.40;2.67;;;6.60;99.90;;;;;;4936770;29;20040;-80
2023/02/23 06:21:41;;;;;;;5.93;3.33;;;6.60;99.90;;;;;;4937811;29;20118;-79
2023/02/23 06:24:07;;;;;;;3.63;2.70;;;6.60;99.90;;;;;;4936413;29;20043;-79
2023/02/23 06:26:34;;;;;;;5.47;3.03;;;6.60;99.90;;;;;;4952625;29;20370;-80
2023/02/23 06:29:01;;;;;;;9.60;3.85;;;6.60;99.90;;;;;;4937701;29;20043;-78
2023/02/23 06:31:28;;;;;;;4.32;3.28;;;6.70;99.90;;;;;;4936777;29;20043;-79
2023/02/23 06:33:54;;;;;;;3.97;2.78;;;6.70;99.90;;;;;;4937242;29;20043;-79
2023/02/23 06:36:21;;;;;;;3.47;2.60;;;6.70;99.90;;;;;;4952429;29;20177;-79
2023/02/23 06:38:48;;;;;;;5.50;3.30;;;6.70;99.90;;;;;;4936631;29;20424;-80
2023/02/23 06:41:16;;;;;;;3.65;2.80;;;6.70;99.90;;;;;;4937545;29;20118;-79
2023/02/23 06:43:44;;;;;;;4.70;2.60;;;6.70;99.90;;;;;;4937108;29;20127;-79
2023/02/23 06:46:10;;;;;;;5.82;3.08;;;6.70;99.90;;;;;;4935494;29;20048;-78
2023/02/23 06:48:37;;;;;;;4.03;2.70;;;6.80;99.90;;;;;;4937537;29;20047;-80
2023/02/23 06:51:04;;;;;;;4.65;2.30;;;6.70;99.90;;;;;;4934636;29;20051;-79
2023/02/23 06:53:30;;;;;;;5.32;2.80;;;6.70;99.90;;;;;;4936950;29;20051;-80
2023/02/23 06:55:57;;;;;;;3.95;2.60;;;6.80;99.90;;;;;;4937157;29;20055;-79
2023/02/23 06:58:24;;;;;;;6.85;3.03;;;6.80;99.90;;;;;;4936302;29;20058;-79
2023/02/23 07:00:50;;;;;;;4.00;2.40;;;6.80;99.90;;;;;;4936314;29;20478;-79
2023/02/23 07:03:18;;;;;;;3.20;2.63;;;6.80;99.90;;;;;;4936096;29;20054;-79
2023/02/23 07:05:44;;;;;;;4.75;2.58;;;6.80;99.90;;;;;;4935270;29;20054;-79
2023/02/23 07:08:11;;;;;;;3.55;2.33;;;6.80;99.90;;;;;;4937206;29;20062;-79
2023/02/23 07:10:38;;;;;;;4.75;2.50;;;6.80;99.90;;;;;;4935196;29;20390;-80
2023/02/23 07:13:04;;;;;;;3.20;2.90;;;6.80;99.90;;;;;;4936803;29;20115;-79
2023/02/23 07:15:31;;;;;;;4.50;2.45;;;6.80;99.90;;;;;;4937084;29;20059;-79
2023/02/23 07:17:57;;;;;;;2.88;2.25;;;6.80;99.90;;;;;;4935467;29;20039;-79
2023/02/23 07:20:24;;;;;;;3.88;2.35;;;6.80;99.90;;;;;;4937403;29;20163;-79
2023/02/23 07:22:51;;;;;;;3.00;2.30;;;6.80;99.90;;;;;;4936030;29;20047;-79
2023/02/23 07:25:17;;;;;;;4.78;2.38;;;6.80;99.90;;;;;;4936535;29;20050;-80
2023/02/23 07:27:44;;;;;;;4.15;2.38;;;6.80;99.90;;;;;;4936407;29;20044;-79
2023/02/23 07:30:11;;;;;;;5.97;2.80;;;6.80;99.90;;;;;;4937082;29;20051;-79
2023/02/23 07:32:37;;;;;;;3.60;2.50;;;6.80;99.90;;;;;;4934865;29;20059;-80
2023/02/23 07:35:04;;;;;;;2.97;2.10;;;6.90;99.90;;;;;;4936311;29;20447;-80
2023/02/23 07:37:31;;;;;;;2.58;2.08;;;6.90;99.90;;;;;;4934968;29;20067;-79
2023/02/23 07:39:58;;;;;;;3.22;2.30;;;6.80;99.90;;;;;;4937057;29;20047;-80
2023/02/23 07:42:27;;;;;;;3.30;2.20;;;6.80;99.90;;;;;;4935842;29;20040;-79
2023/02/23 07:44:53;;;;;;;2.88;1.90;;;6.90;99.90;;;;;;4936114;29;20051;-80
2023/02/23 07:47:21;;;;;;;3.42;2.05;;;6.90;99.90;;;;;;4935900;29;20462;-79
2023/02/23 07:49:48;;;;;;;3.17;2.40;;;7.00;99.90;;;;;;4936873;29;20044;-80
2023/02/23 07:52:15;;;;;;;2.92;2.33;;;7.00;99.90;;;;;;4936826;29;20051;-79
2023/02/23 07:54:41;;;;;;;3.60;3.05;;;6.90;99.90;;;;;;4936449;29;20386;-79
2023/02/23 07:57:08;;;;;;;4.43;2.63;;;6.90;99.90;;;;;;4936871;29;20047;-79
2023/02/23 07:59:35;;;;;;;4.63;2.33;;;6.90;99.90;;;;;;4935842;29;20039;-79
2023/02/23 08:02:02;;;;;;;4.90;2.60;;;6.90;99.90;;;;;;4937988;29;20455;-78
2023/02/23 08:04:29;;;;;;;5.38;2.95;;;7.00;99.90;;;;;;4938621;29;20046;-79
2023/02/23 08:06:55;;;;;;;4.93;2.50;;;6.90;99.90;;;;;;4940178;29;20047;-79
2023/02/23 08:09:22;;;;;;;5.18;2.60;;;6.90;99.90;;;;;;4939630;29;20063;-78
2023/02/23 08:11:49;;;;;;;4.15;3.00;;;6.90;99.90;;;;;;4939085;29;20403;-78
2023/02/23 08:14:16;;;;;;;5.18;2.92;;;6.80;99.90;;;;;;4939649;29;20135;-79
2023/02/23 08:16:42;;;;;;;4.70;2.90;;;6.80;99.90;;;;;;4940031;29;20111;-79
2023/02/23 08:19:09;;;;;;;5.15;2.28;;;6.80;99.90;;;;;;4938954;29;20052;-78
2023/02/23 08:21:36;;;;;;;3.88;2.15;;;6.90;99.90;;;;;;4939838;29;20043;-79
2023/02/23 08:24:02;;;;;;;3.65;2.40;;;6.90;99.90;;;;;;4938479;29;20036;-79
2023/02/23 08:26:29;;;;;;;4.93;2.85;;;6.90;99.90;;;;;;4936674;29;20040;-79
2023/02/23 08:28:56;;;;;;;7.43;2.45;;;7.00;99.90;;;;;;4939305;29;20044;-79
2023/02/23 08:31:22;;;;;;;4.65;2.33;;;7.00;99.90;;;;;;4938949;29;20052;-79
2023/02/23 08:33:50;;;;;;;4.97;2.53;;;7.10;99.90;;;;;;4938643;29;20746;-80
2023/02/23 08:36:19;;;;;;;4.28;1.88;;;7.10;99.90;;;;;;4922907;29;20055;-79
2023/02/23 08:38:46;;;;;;;4.93;2.90;;;7.20;99.90;;;;;;4936508;29;20059;-79
2023/02/23 08:41:13;;;;;;;4.05;2.13;;;7.30;99.90;;;;;;4940090;29;20098;-80
2023/02/23 08:43:40;;;;;;;4.75;2.00;;;7.30;99.90;;;;;;4933431;29;20493;-78
2023/02/23 08:46:06;;;;;;;3.28;1.77;;;7.30;99.90;;;;;;4929171;29;20058;-79
2023/02/23 08:48:33;;;;;;;7.70;3.67;;;7.30;99.90;;;;;;4954678;29;20064;-79
2023/02/23 08:51:00;;;;;;;7.13;2.17;;;7.30;99.90;;;;;;4938609;29;20058;-79
2023/02/23 08:53:28;;;;;;;4.32;1.95;;;7.30;99.90;;;;;;4939392;29;20051;-78
2023/02/23 08:55:55;;;;;;;8.25;2.67;;;7.30;99.90;;;;;;4938730;29;20051;-78
2023/02/23 08:58:22;;;;;;;2.90;2.05;;;7.30;99.90;;;;;;4938685;29;20067;-79
2023/02/23 09:00:48;;;;;;;5.18;2.15;;;7.40;99.90;;;;;;4938811;29;20068;-79
2023/02/23 09:03:15;;;;;;;4.47;1.95;;;7.40;99.90;;;;;;4938049;29;20054;-80
2023/02/23 09:05:43;;;;;;;4.28;2.78;;;7.40;99.90;;;;;;4938009;29;20043;-79
2023/02/23 09:08:09;;;;;;;5.53;2.22;;;7.50;99.90;;;;;;4939472;29;20395;-80
2023/02/23 09:10:36;;;;;;;5.75;2.33;;;7.60;99.90;;;;;;4938979;29;20059;-81
2023/02/23 09:13:03;;;;;;;5.50;2.05;;;7.60;99.90;;;;;;4938648;29;20407;-81
2023/02/23 09:15:29;;;;;;;4.15;1.75;;;7.70;99.90;;;;;;4938264;29;20062;-79
2023/02/23 09:17:56;;;;;;;4.55;1.55;;;7.70;99.90;;;;;;4936414;29;20057;-82
2023/02/23 09:20:25;;;;;;;5.53;2.45;;;7.70;99.90;;;;;;4936555;29;20386;-78
2023/02/23 09:22:52;;;;;;;10.60;2.83;;;7.70;99.90;;;;;;4935838;29;20078;-81
2023/02/23 09:25:21;;;;;;;7.90;1.70;;;7.70;99.90;;;;;;4935728;29;20036;-81
2023/02/23 09:27:48;;;;;;;11.77;3.00;;;7.60;99.90;;;;;;4953504;29;20134;-80
2023/02/23 09:30:16;;;;;;;4.78;3.13;;;7.60;99.90;;;;;;4953718;29;20466;-79
2023/02/23 09:32:43;;;;;;;5.75;1.80;;;7.60;99.90;;;;;;4937502;29;20103;-80
2023/02/23 09:35:10;;;;;;;5.07;2.03;;;7.70;99.90;;;;;;4938686;29;20055;-80
2023/02/23 09:37:36;;;;;;;2.80;1.50;;;7.70;99.90;;;;;;4953024;29;20035;-81
2023/02/23 09:40:03;;;;;;;4.95;1.63;;;7.80;99.90;;;;;;4937754;29;20435;-82
2023/02/23 09:42:30;;;;;;;3.75;1.42;;;7.80;99.90;;;;;;4936466;29;20043;-81
2023/02/23 09:44:57;;;;;;;1.98;1.40;;;7.70;99.90;;;;;;4920933;29;20066;-81
2023/02/23 09:47:24;;;;;;;4.68;2.30;;;7.70;99.90;;;;;;4921728;29;20055;-80
2023/02/23 09:49:51;;;;;;;3.55;1.33;;;7.60;99.90;;;;;;4938460;29;20039;-80
2023/02/23 09:52:17;;;;;;;6.78;2.47;;;7.60;99.90;;;;;;4934755;29;20089;-80
2023/02/23 09:54:45;;;;;;;4.38;1.60;;;7.60;99.90;;;;;;4921815;29;20055;-80
2023/02/23 09:57:13;;;;;;;2.22;1.30;;;7.60;99.90;;;;;;4937198;29;20143;-80
2023/02/23 09:59:39;;;;;;;4.60;1.50;;;7.60;99.90;;;;;;4922562;29;20040;-80
2023/02/23 10:02:06;;;;;;;4.13;1.45;;;7.50;99.90;;;;;;4952920;29;20047;-79
2023/02/23 10:04:33;;;;;;;4.45;1.42;;;7.50;99.90;;;;;;4926944;29;20352;-80
2023/02/23 10:06:59;;;;;;;3.58;1.50;;;7.40;99.90;;;;;;4937803;29;20109;-80
2023/02/23 10:09:26;;;;;;;5.80;1.98;;;7.30;99.90;;;;;;4937309;29;20075;-80
2023/02/23 10:11:55;;;;;;;4.35;2.20;;;7.20;99.90;;;;;;4951496;29;20039;-81
2023/02/23 10:14:21;;;;;;;6.45;1.80;;;7.20;99.90;;;;;;4936586;29;20457;-81
2023/02/23 10:16:51;;;;;;;7.63;2.28;;;7.20;99.90;;;;;;4936642;29;20106;-81
2023/02/23 10:19:17;;;;;;;7.15;2.05;;;7.20;99.90;;;;;;4935951;29;20047;-81
2023/02/23 10:21:44;;;;;;;9.07;2.80;;;7.20;99.90;;;;;;4930820;29;20122;-82
2023/02/23 10:24:11;;;;;;;11.77;3.58;;;7.20;99.90;;;;;;4938904;29;20334;-80
2023/02/23 10:26:39;;;;;;;6.32;3.05;;;7.30;99.90;;;;;;4937619;29;20043;-79
2023/02/23 10:29:05;;;;;;;7.47;3.05;;;7.40;99.90;;;;;;4937124;29;20142;-81
2023/02/23 10:31:33;;;;;;;7.25;2.72;;;7.50;99.90;;;;;;4936184;29;20044;-80
2023/02/23 10:34:00;;;;;;;6.78;2.15;;;7.60;99.90;;;;;;4921703;29;20043;-80
2023/02/23 10:36:27;;;;;;;10.93;2.40;;;7.70;99.90;;;;;;4952412;29;20044;-80
2023/02/23 10:38:54;;;;;;;7.88;2.60;;;7.90;99.90;;;;;;4944948;29;20036;-80
2023/02/23 10:41:20;;;;;;;6.68;2.55;;;7.90;99.90;;;;;;4937316;29;20371;-80
2023/02/23 10:43:47;;;;;;;9.30;2.53;;;8.00;99.90;;;;;;4936475;29;20048;-80
2023/02/23 10:46:14;;;;;;;8.35;2.80;;;8.20;99.90;;;;;;4919785;29;20351;-79
2023/02/23 10:48:42;;;;;;;12.82;3.13;;;8.20;99.90;;;;;;4938759;29;20047;-80
2023/02/23 10:51:08;;;;;;;6.30;2.47;;;8.30;99.90;;;;;;4941202;29;20052;-80
2023/02/23 10:53:35;;;;;;;11.65;3.10;;;8.40;99.90;;;;;;4932968;29;20056;-80
2023/02/23 10:56:02;;;;;;;6.20;2.03;;;8.40;99.90;;;;;;4952203;28;20085;-80
2023/02/23 10:58:28;;;;;;;9.52;2.92;;;8.40;99.90;;;;;;4935910;29;20051;-80
2023/02/23 11:00:55;;;;;;;6.65;3.83;;;8.40;99.90;;;;;;4936874;29;20057;-80
2023/02/23 11:03:22;;;;;;;7.55;2.22;;;8.60;99.90;;;;;;4932380;29;20040;-80
2023/02/23 11:05:52;;;;;;;9.88;3.50;;;8.70;99.90;;;;;;4934120;29;20071;-80
2023/02/23 11:08:19;;;;;;;7.63;2.72;;;8.70;99.90;;;;;;4937114;29;20051;-81
2023/02/23 11:10:47;;;;;;;6.25;2.30;;;8.60;99.90;;;;;;4925990;29;20056;-79
2023/02/23 11:13:14;;;;;;;9.57;2.70;;;8.50;99.90;;;;;;4934416;29;20048;-80
2023/02/23 11:15:42;;;;;;;7.15;2.38;;;8.40;99.90;;;;;;4935943;29;20102;-80
2023/02/23 11:18:16;;;;;;;6.68;2.45;;;8.40;99.90;;;;;;4921537;29;20114;-80
2023/02/23 11:20:43;;;;;;;11.48;3.50;;;8.40;99.90;;;;;;4936550;29;20054;-80
2023/02/23 11:23:09;;;;;;;7.32;2.05;;;8.40;99.90;;;;;;4936206;29;20083;-80
2023/02/23 11:25:40;;;;;;;11.57;3.13;;;8.30;99.90;;;;;;4918920;29;20441;-80
2023/02/23 11:28:07;;;;;;;10.60;2.80;;;8.30;99.90;;;;;;4936370;29;20042;-80
2023/02/23 11:30:35;;;;;;;7.47;2.40;;;8.30;99.90;;;;;;4934598;29;20043;-80
2023/02/23 11:33:09;;;;;;;6.03;2.65;;;8.30;99.90;;;;;;4935371;29;20079;-80
2023/02/23 11:35:37;;;;;;;7.30;2.20;;;8.30;99.90;;;;;;4932087;29;20119;-80
2023/02/23 11:38:04;;;;;;;6.13;2.05;;;8.20;99.90;;;;;;4921700;29;20067;-80
2023/02/23 11:40:31;;;;;;;6.50;2.20;;;8.10;99.90;;;;;;4941750;29;20052;-80
2023/02/23 11:42:57;;;;;;;5.95;2.30;;;8.10;99.90;;;;;;4946184;28;20459;-79
2023/02/23 11:45:24;;;;;;;5.47;1.52;;;8.10;99.90;;;;;;4931323;29;20044;-80
2023/02/23 11:47:51;;;;;;;7.53;2.33;;;8.20;99.90;;;;;;4940261;29;20055;-80
2023/02/23 11:50:17;;;;;;;8.25;2.63;;;8.30;99.90;;;;;;4939382;29;20046;-80
2023/02/23 11:52:44;;;;;;;5.85;1.70;;;8.30;99.90;;;;;;4938648;29;20048;-79
2023/02/23 11:55:11;;;;;;;10.05;3.13;;;8.20;99.90;;;;;;4940664;29;20052;-80
2023/02/23 11:57:37;;;;;;;10.35;2.53;;;8.30;99.90;;;;;;4939631;29;20099;-79
2023/02/23 12:00:04;;;;;;;4.97;1.90;;;8.20;99.90;;;;;;4940591;29;20048;-80
2023/02/23 12:02:37;;;;;;;8.50;2.28;;;8.30;99.90;;;;;;4941920;29;20051;-79
2023/02/23 12:05:04;;;;;;;5.18;2.38;;;8.40;99.90;;;;;;4941102;29;20127;-80
2023/02/23 12:07:33;;;;;;;9.07;2.92;;;8.50;99.90;;;;;;4940230;29;20040;-80
2023/02/23 12:10:00;;;;;;;7.25;3.58;;;8.40;99.90;;;;;;4939652;29;20063;-80
2023/02/23 12:12:27;;;;;;;4.95;1.88;;;8.40;99.90;;;;;;4922021;29;20054;-80
2023/02/23 12:14:54;;;;;;;8.70;2.00;;;8.50;99.90;;;;;;4939333;29;20083;-80
2023/02/23 12:17:21;;;;;;;9.07;1.90;;;8.60;99.90;;;;;;4938370;29;20485;-80
2023/02/23 12:19:48;;;;;;;11.98;3.53;;;8.70;99.90;;;;;;4940014;29;20051;-80
2023/02/23 12:22:15;;;;;;;8.00;2.20;;;8.70;99.90;;;;;;4928080;29;20054;-80
2023/02/23 12:24:42;;;;;;;10.73;3.10;;;8.70;99.90;;;;;;4937772;29;20058;-80
2023/02/23 12:27:11;;;;;;;8.02;2.45;;;8.80;99.90;;;;;;4949960;29;20062;-80
2023/02/23 12:29:38;;;;;;;11.43;2.47;;;9.00;99.90;;;;;;4918617;29;20055;-81
2023/02/23 12:32:05;;;;;;;3.05;1.60;;;9.10;99.90;;;;;;4936666;29;20106;-81
2023/02/23 12:34:32;;;;;;;4.60;2.00;;;9.20;99.90;;;;;;4938226;29;20466;-80
2023/02/23 12:36:58;;;;;;;5.10;1.42;;;9.30;99.90;;;;;;4931265;29;20418;-81
2023/02/23 12:39:26;;;;;;;3.40;1.10;;;9.40;99.90;;;;;;4928366;29;20071;-80
2023/02/23 12:41:55;;;;;;;7.20;1.50;;;9.20;99.90;;;;;;4931670;29;20043;-80
2023/02/23 12:44:22;;;;;;;;;;;9.20;99.90;;;;;;4938774;29;20372;-81
2023/02/23 12:46:50;;;;;;;7.95;1.67;;;9.20;99.90;;;;;;4939436;29;19922;-80
2023/02/23 12:49:16;;;;;;;6.80;1.92;;;9.20;99.90;;;;;;4922207;29;20147;-80
2023/02/23 12:51:43;;;;;;;3.83;1.52;;;9.30;99.90;;;;;;4937016;29;20035;-81
2023/02/23 12:54:09;;;;;;;5.88;1.67;;;9.30;99.90;;;;;;4939086;29;20427;-82
2023/02/23 12:56:41;;;;;;;4.18;1.40;;;9.30;99.90;;;;;;4938669;29;20062;-81
2023/02/23 12:59:12;;;;;;;7.40;1.55;;;9.30;99.90;;;;;;4938763;29;20082;-79
2023/02/23 13:01:38;;;;;;;5.35;2.20;;;9.10;99.90;;;;;;4938458;29;20405;-81
2023/02/23 13:04:05;;;;;;;3.95;1.45;;;9.00;99.90;;;;;;4938234;29;20098;-81
2023/02/23 13:06:35;;;;;;;3.72;1.50;;;8.90;99.90;;;;;;4938237;29;20062;-81
2023/02/23 13:09:02;;;;;;;3.30;1.50;;;8.80;99.90;;;;;;4939340;29;20050;-82
2023/02/23 13:11:29;;;;;;;6.85;2.20;;;8.80;99.90;;;;;;4938172;29;20039;-82
2023/02/23 13:13:55;;;;;;;4.55;1.60;;;8.80;99.90;;;;;;4937872;29;20475;-86
2023/02/23 13:16:22;;;;;;;4.45;1.83;;;9.30;99.90;;;;;;4936079;29;20040;-81
2023/02/23 13:18:50;;;;;;;6.38;2.30;;;10.00;99.90;;;;;;4929329;29;20048;-81
2023/02/23 13:21:16;;;;;;;5.45;2.15;;;10.50;99.90;;;;;;4934126;29;20075;-82
2023/02/23 13:23:43;;;;;;;5.53;2.15;;;10.40;99.90;;;;;;4938953;29;20035;-80
2023/02/23 13:26:11;;;;;;;5.15;1.30;;;10.00;99.90;;;;;;4937970;29;20051;-80
2023/02/23 13:28:38;;;;;;;7.40;2.30;;;9.60;99.90;;;;;;4938825;29;20130;-81
2023/02/23 13:31:05;;;;;;;7.68;3.20;;;9.40;99.90;;;;;;4937601;29;20374;-81
2023/02/23 13:33:33;;;;;;;3.92;1.58;;;9.20;99.90;;;;;;4937234;29;20051;-81
2023/02/23 13:36:11;;;;;;;3.97;1.48;;;9.10;99.90;;;;;;4938871;29;20065;-81
2023/02/23 13:38:38;;;;;;;4.15;1.63;;;8.90;99.90;;;;;;4936709;29;20048;-81
2023/02/23 13:41:05;;;;;;;6.03;1.92;;;8.80;99.90;;;;;;4932427;29;20040;-80
2023/02/23 13:43:32;;;;;;;5.47;1.92;;;8.70;99.90;;;;;;4918145;29;20091;-80
2023/02/23 13:45:58;;;;;;;4.03;1.45;;;8.70;99.90;;;;;;4917503;29;20056;-81
2023/02/23 13:48:25;;;;;;;5.28;1.88;;;8.50;99.90;;;;;;4918622;29;20044;-81
2023/02/23 13:50:52;;;;;;;6.97;1.60;;;8.50;99.90;;;;;;4919132;29;20127;-80
2023/02/23 13:53:19;;;;;;;9.10;2.15;;;8.50;99.90;;;;;;4919006;29;20044;-81
2023/02/23 13:55:46;;;;;;;5.85;2.00;;;8.40;99.90;;;;;;4918389;29;20062;-80
2023/02/23 13:58:15;;;;;;;4.80;2.03;;;8.50;99.90;;;;;;4917668;29;20079;-80
2023/02/23 14:00:42;;;;;;;8.77;3.70;;;8.50;99.90;;;;;;4918751;29;20040;-80
2023/02/23 14:03:08;;;;;;;9.20;2.20;;;8.50;99.90;;;;;;4917880;29;20519;-80
2023/02/23 14:05:35;;;;;;;8.18;2.75;;;8.50;99.90;;;;;;4917097;29;20115;-81
2023/02/23 14:08:03;;;;;;;5.30;2.00;;;8.60;99.90;;;;;;4919107;29;20040;-81
2023/02/23 14:10:29;;;;;;;7.93;2.00;;;8.60;99.90;;;;;;4918517;29;20068;-81